sensor_id;sensor_type;location;lat;lon;timestamp;P1;durP1;ratioP1;P2;durP2;ratioP2
45136;SDS011;30894;51.740;19.498;2022-08-23T00:01:20;5.47;;;2.85;;
45136;SDS011;30894;51.740;19.498;2022-08-23T00:03:51;7.40;;;3.50;;
45136;SDS011;30894;51.740;19.498;2022-08-23T00:06:20;8.00;;;3.50;;
45136;SDS011;30894;51.740;19.498;2022-08-23T00:08:46;6.45;;;3.25;;
45136;SDS011;30894;51.740;19.498;2022-08-23T00:14:01;12.18;;;3.63;;
45136;SDS011;30894;51.740;19.498;2022-08-23T00:16:33;6.05;;;3.50;;
45136;SDS011;30894;51.740;19.498;2022-08-23T00:18:59;6.35;;;3.53;;
45136;SDS011;30894;51.740;19.498;2022-08-23T00:21:28;6.40;;;3.33;;
45136;SDS011;30894;51.740;19.498;2022-08-23T00:23:54;7.25;;;3.80;;
45136;SDS011;30894;51.740;19.498;2022-08-23T00:26:21;6.50;;;3.65;;
45136;SDS011;30894;51.740;19.498;2022-08-23T00:28:47;6.55;;;3.45;;
45136;SDS011;30894;51.740;19.498;2022-08-23T00:31:15;7.80;;;3.78;;
45136;SDS011;30894;51.740;19.498;2022-08-23T00:33:42;9.77;;;3.50;;
45136;SDS011;30894;51.740;19.498;2022-08-23T00:36:08;4.97;;;3.40;;
45136;SDS011;30894;51.740;19.498;2022-08-23T00:38:35;9.07;;;3.63;;
45136;SDS011;30894;51.740;19.498;2022-08-23T00:41:00;6.55;;;3.63;;
45136;SDS011;30894;51.740;19.498;2022-08-23T00:43:29;7.50;;;3.38;;
45136;SDS011;30894;51.740;19.498;2022-08-23T00:49:34;4.75;;;3.05;;
45136;SDS011;30894;51.740;19.498;2022-08-23T00:52:25;7.03;;;3.97;;
45136;SDS011;30894;51.740;19.498;2022-08-23T00:54:55;7.18;;;3.53;;
45136;SDS011;30894;51.740;19.498;2022-08-23T00:57:22;5.47;;;3.38;;
45136;SDS011;30894;51.740;19.498;2022-08-23T00:59:48;11.73;;;3.42;;
45136;SDS011;30894;51.740;19.498;2022-08-23T01:02:15;6.93;;;3.70;;
45136;SDS011;30894;51.740;19.498;2022-08-23T01:04:48;8.23;;;3.53;;
45136;SDS011;30894;51.740;19.498;2022-08-23T01:07:39;8.50;;;3.65;;
45136;SDS011;30894;51.740;19.498;2022-08-23T01:10:35;7.85;;;3.80;;
45136;SDS011;30894;51.740;19.498;2022-08-23T01:13:51;11.07;;;3.80;;
45136;SDS011;30894;51.740;19.498;2022-08-23T01:16:26;6.95;;;3.28;;
45136;SDS011;30894;51.740;19.498;2022-08-23T01:19:21;8.15;;;4.00;;
45136;SDS011;30894;51.740;19.498;2022-08-23T01:24:38;7.53;;;3.63;;
45136;SDS011;30894;51.740;19.498;2022-08-23T01:27:06;7.40;;;3.50;;
45136;SDS011;30894;51.740;19.498;2022-08-23T01:29:33;6.70;;;3.40;;
45136;SDS011;30894;51.740;19.498;2022-08-23T01:31:59;15.48;;;3.70;;
45136;SDS011;30894;51.740;19.498;2022-08-23T01:34:26;10.18;;;4.25;;
45136;SDS011;30894;51.740;19.498;2022-08-23T01:36:54;7.93;;;3.88;;
45136;SDS011;30894;51.740;19.498;2022-08-23T01:39:20;7.78;;;3.70;;
45136;SDS011;30894;51.740;19.498;2022-08-23T01:41:47;5.03;;;3.22;;
45136;SDS011;30894;51.740;19.498;2022-08-23T01:44:13;11.55;;;4.78;;
45136;SDS011;30894;51.740;19.498;2022-08-23T01:46:41;12.10;;;3.85;;
45136;SDS011;30894;51.740;19.498;2022-08-23T01:49:12;13.40;;;4.10;;
45136;SDS011;30894;51.740;19.498;2022-08-23T01:51:38;7.82;;;3.70;;
45136;SDS011;30894;51.740;19.498;2022-08-23T01:54:04;6.57;;;3.63;;
45136;SDS011;30894;51.740;19.498;2022-08-23T01:56:30;5.40;;;3.80;;
45136;SDS011;30894;51.740;19.498;2022-08-23T01:58:58;7.40;;;3.08;;
45136;SDS011;30894;51.740;19.498;2022-08-23T02:01:24;6.05;;;2.75;;
45136;SDS011;30894;51.740;19.498;2022-08-23T02:03:51;4.28;;;2.67;;
45136;SDS011;30894;51.740;19.498;2022-08-23T02:06:17;7.18;;;2.78;;
45136;SDS011;30894;51.740;19.498;2022-08-23T02:08:43;9.10;;;4.25;;
45136;SDS011;30894;51.740;19.498;2022-08-23T02:11:29;8.02;;;3.67;;
45136;SDS011;30894;51.740;19.498;2022-08-23T02:14:07;11.30;;;4.30;;
45136;SDS011;30894;51.740;19.498;2022-08-23T02:16:40;9.30;;;4.30;;
45136;SDS011;30894;51.740;19.498;2022-08-23T02:19:11;14.27;;;4.28;;
45136;SDS011;30894;51.740;19.498;2022-08-23T02:21:39;10.77;;;3.88;;
45136;SDS011;30894;51.740;19.498;2022-08-23T02:24:08;3.80;;;2.78;;
45136;SDS011;30894;51.740;19.498;2022-08-23T02:26:43;8.18;;;2.30;;
45136;SDS011;30894;51.740;19.498;2022-08-23T02:29:13;0.75;;;0.68;;
45136;SDS011;30894;51.740;19.498;2022-08-23T02:31:40;0.60;;;0.60;;
45136;SDS011;30894;51.740;19.498;2022-08-23T02:34:08;3.60;;;0.82;;
45136;SDS011;30894;51.740;19.498;2022-08-23T02:36:38;2.67;;;0.93;;
45136;SDS011;30894;51.740;19.498;2022-08-23T02:39:05;1.90;;;1.02;;
45136;SDS011;30894;51.740;19.498;2022-08-23T02:41:33;2.55;;;0.90;;
45136;SDS011;30894;51.740;19.498;2022-08-23T02:43:59;1.50;;;0.77;;
45136;SDS011;30894;51.740;19.498;2022-08-23T02:46:25;8.43;;;1.23;;
45136;SDS011;30894;51.740;19.498;2022-08-23T02:48:51;0.88;;;0.82;;
45136;SDS011;30894;51.740;19.498;2022-08-23T02:51:18;1.52;;;1.40;;
45136;SDS011;30894;51.740;19.498;2022-08-23T02:53:44;2.95;;;1.88;;
45136;SDS011;30894;51.740;19.498;2022-08-23T02:56:11;4.07;;;2.03;;
45136;SDS011;30894;51.740;19.498;2022-08-23T02:58:37;4.80;;;2.42;;
45136;SDS011;30894;51.740;19.498;2022-08-23T03:01:04;3.28;;;1.88;;
45136;SDS011;30894;51.740;19.498;2022-08-23T03:03:30;10.45;;;2.35;;
45136;SDS011;30894;51.740;19.498;2022-08-23T03:05:57;9.25;;;2.42;;
45136;SDS011;30894;51.740;19.498;2022-08-23T03:08:23;2.75;;;1.92;;
45136;SDS011;30894;51.740;19.498;2022-08-23T03:10:49;3.58;;;2.08;;
45136;SDS011;30894;51.740;19.498;2022-08-23T03:13:18;3.28;;;2.10;;
45136;SDS011;30894;51.740;19.498;2022-08-23T03:15:44;2.58;;;2.00;;
45136;SDS011;30894;51.740;19.498;2022-08-23T03:18:10;2.97;;;1.80;;
45136;SDS011;30894;51.740;19.498;2022-08-23T03:20:37;4.00;;;2.15;;
45136;SDS011;30894;51.740;19.498;2022-08-23T03:23:06;3.42;;;2.05;;
45136;SDS011;30894;51.740;19.498;2022-08-23T03:25:33;8.93;;;1.88;;
45136;SDS011;30894;51.740;19.498;2022-08-23T03:28:03;4.05;;;2.50;;
45136;SDS011;30894;51.740;19.498;2022-08-23T03:30:30;3.30;;;2.47;;
45136;SDS011;30894;51.740;19.498;2022-08-23T03:32:58;9.55;;;4.97;;
45136;SDS011;30894;51.740;19.498;2022-08-23T03:35:26;3.60;;;2.28;;
45136;SDS011;30894;51.740;19.498;2022-08-23T03:37:53;4.65;;;1.90;;
45136;SDS011;30894;51.740;19.498;2022-08-23T03:40:19;3.47;;;1.42;;
45136;SDS011;30894;51.740;19.498;2022-08-23T03:42:47;4.15;;;2.28;;
45136;SDS011;30894;51.740;19.498;2022-08-23T03:45:15;4.43;;;1.90;;
45136;SDS011;30894;51.740;19.498;2022-08-23T03:47:42;13.90;;;2.45;;
45136;SDS011;30894;51.740;19.498;2022-08-23T03:50:09;4.70;;;2.00;;
45136;SDS011;30894;51.740;19.498;2022-08-23T03:52:36;5.18;;;1.63;;
45136;SDS011;30894;51.740;19.498;2022-08-23T03:55:02;3.78;;;1.88;;
45136;SDS011;30894;51.740;19.498;2022-08-23T03:57:29;4.85;;;1.92;;
45136;SDS011;30894;51.740;19.498;2022-08-23T03:59:55;4.15;;;1.92;;
45136;SDS011;30894;51.740;19.498;2022-08-23T04:02:24;3.20;;;1.75;;
45136;SDS011;30894;51.740;19.498;2022-08-23T04:04:50;9.63;;;2.03;;
45136;SDS011;30894;51.740;19.498;2022-08-23T04:07:22;6.15;;;2.25;;
45136;SDS011;30894;51.740;19.498;2022-08-23T04:09:48;8.10;;;2.85;;
45136;SDS011;30894;51.740;19.498;2022-08-23T04:12:14;8.30;;;2.10;;
45136;SDS011;30894;51.740;19.498;2022-08-23T04:14:40;6.85;;;1.90;;
45136;SDS011;30894;51.740;19.498;2022-08-23T04:17:06;2.90;;;1.75;;
45136;SDS011;30894;51.740;19.498;2022-08-23T04:19:32;3.95;;;1.85;;
45136;SDS011;30894;51.740;19.498;2022-08-23T04:21:58;4.72;;;1.80;;
45136;SDS011;30894;51.740;19.498;2022-08-23T04:24:24;3.05;;;1.92;;
45136;SDS011;30894;51.740;19.498;2022-08-23T04:26:51;2.22;;;1.75;;
45136;SDS011;30894;51.740;19.498;2022-08-23T04:29:17;5.22;;;1.95;;
45136;SDS011;30894;51.740;19.498;2022-08-23T04:31:43;5.28;;;2.05;;
45136;SDS011;30894;51.740;19.498;2022-08-23T04:34:10;3.95;;;2.10;;
45136;SDS011;30894;51.740;19.498;2022-08-23T04:36:38;4.65;;;2.08;;
45136;SDS011;30894;51.740;19.498;2022-08-23T04:39:07;5.32;;;1.77;;
45136;SDS011;30894;51.740;19.498;2022-08-23T04:41:34;3.00;;;1.65;;
45136;SDS011;30894;51.740;19.498;2022-08-23T04:44:19;2.47;;;1.50;;
45136;SDS011;30894;51.740;19.498;2022-08-23T04:46:45;2.65;;;1.88;;
45136;SDS011;30894;51.740;19.498;2022-08-23T04:49:13;3.10;;;1.42;;
45136;SDS011;30894;51.740;19.498;2022-08-23T04:51:39;8.38;;;1.67;;
45136;SDS011;30894;51.740;19.498;2022-08-23T04:54:05;3.33;;;1.70;;
45136;SDS011;30894;51.740;19.498;2022-08-23T04:56:32;3.65;;;1.92;;
45136;SDS011;30894;51.740;19.498;2022-08-23T04:58:59;2.00;;;1.55;;
45136;SDS011;30894;51.740;19.498;2022-08-23T05:01:25;2.33;;;1.73;;
45136;SDS011;30894;51.740;19.498;2022-08-23T05:03:52;1.92;;;1.50;;
45136;SDS011;30894;51.740;19.498;2022-08-23T05:06:19;6.22;;;1.63;;
45136;SDS011;30894;51.740;19.498;2022-08-23T05:08:46;2.47;;;1.50;;
45136;SDS011;30894;51.740;19.498;2022-08-23T05:11:12;3.00;;;1.95;;
45136;SDS011;30894;51.740;19.498;2022-08-23T05:13:38;2.45;;;1.60;;
45136;SDS011;30894;51.740;19.498;2022-08-23T05:16:05;3.00;;;2.03;;
45136;SDS011;30894;51.740;19.498;2022-08-23T05:18:32;2.92;;;2.13;;
45136;SDS011;30894;51.740;19.498;2022-08-23T05:20:58;2.25;;;1.60;;
45136;SDS011;30894;51.740;19.498;2022-08-23T05:23:25;8.90;;;1.95;;
45136;SDS011;30894;51.740;19.498;2022-08-23T05:25:52;4.85;;;1.80;;
45136;SDS011;30894;51.740;19.498;2022-08-23T05:28:39;1.67;;;1.58;;
45136;SDS011;30894;51.740;19.498;2022-08-23T05:31:19;5.88;;;2.28;;
45136;SDS011;30894;51.740;19.498;2022-08-23T05:33:48;4.93;;;1.73;;
45136;SDS011;30894;51.740;19.498;2022-08-23T05:36:16;3.33;;;1.65;;
45136;SDS011;30894;51.740;19.498;2022-08-23T05:38:43;3.47;;;1.90;;
45136;SDS011;30894;51.740;19.498;2022-08-23T05:41:11;3.95;;;2.10;;
45136;SDS011;30894;51.740;19.498;2022-08-23T05:43:37;2.67;;;1.65;;
45136;SDS011;30894;51.740;19.498;2022-08-23T05:46:24;2.97;;;1.10;;
45136;SDS011;30894;51.740;19.498;2022-08-23T05:48:50;3.03;;;1.58;;
45136;SDS011;30894;51.740;19.498;2022-08-23T05:53:44;2.22;;;1.67;;
45136;SDS011;30894;51.740;19.498;2022-08-23T05:56:33;2.50;;;1.63;;
45136;SDS011;30894;51.740;19.498;2022-08-23T05:59:04;3.00;;;1.75;;
45136;SDS011;30894;51.740;19.498;2022-08-23T06:01:33;1.77;;;1.43;;
45136;SDS011;30894;51.740;19.498;2022-08-23T06:04:01;2.28;;;1.85;;
45136;SDS011;30894;51.740;19.498;2022-08-23T06:06:31;3.13;;;1.95;;
45136;SDS011;30894;51.740;19.498;2022-08-23T06:08:59;2.72;;;1.60;;
45136;SDS011;30894;51.740;19.498;2022-08-23T06:11:27;3.33;;;1.90;;
45136;SDS011;30894;51.740;19.498;2022-08-23T06:13:55;1.42;;;1.15;;
45136;SDS011;30894;51.740;19.498;2022-08-23T06:16:25;1.30;;;1.02;;
45136;SDS011;30894;51.740;19.498;2022-08-23T06:18:59;2.17;;;1.60;;
45136;SDS011;30894;51.740;19.498;2022-08-23T06:21:27;4.22;;;2.00;;
45136;SDS011;30894;51.740;19.498;2022-08-23T06:23:54;2.47;;;1.20;;
45136;SDS011;30894;51.740;19.498;2022-08-23T06:26:25;1.70;;;1.40;;
45136;SDS011;30894;51.740;19.498;2022-08-23T06:28:56;2.10;;;1.38;;
45136;SDS011;30894;51.740;19.498;2022-08-23T06:31:30;1.33;;;1.13;;
45136;SDS011;30894;51.740;19.498;2022-08-23T06:34:24;2.97;;;1.75;;
45136;SDS011;30894;51.740;19.498;2022-08-23T06:37:02;2.05;;;1.40;;
45136;SDS011;30894;51.740;19.498;2022-08-23T06:39:37;3.55;;;1.75;;
45136;SDS011;30894;51.740;19.498;2022-08-23T06:42:07;3.92;;;1.40;;
45136;SDS011;30894;51.740;19.498;2022-08-23T06:44:36;4.15;;;1.50;;
45136;SDS011;30894;51.740;19.498;2022-08-23T06:47:03;3.28;;;1.55;;
45136;SDS011;30894;51.740;19.498;2022-08-23T06:49:31;2.33;;;1.02;;
45136;SDS011;30894;51.740;19.498;2022-08-23T06:51:58;4.20;;;1.70;;
45136;SDS011;30894;51.740;19.498;2022-08-23T06:54:27;2.20;;;1.33;;
45136;SDS011;30894;51.740;19.498;2022-08-23T06:56:55;2.53;;;1.65;;
45136;SDS011;30894;51.740;19.498;2022-08-23T06:59:22;2.58;;;1.52;;
45136;SDS011;30894;51.740;19.498;2022-08-23T07:04:23;2.35;;;1.58;;
45136;SDS011;30894;51.740;19.498;2022-08-23T07:06:53;2.47;;;1.40;;
45136;SDS011;30894;51.740;19.498;2022-08-23T07:09:20;2.53;;;1.45;;
45136;SDS011;30894;51.740;19.498;2022-08-23T07:11:46;2.30;;;1.58;;
45136;SDS011;30894;51.740;19.498;2022-08-23T07:14:13;3.13;;;1.23;;
45136;SDS011;30894;51.740;19.498;2022-08-23T07:16:43;3.45;;;1.48;;
45136;SDS011;30894;51.740;19.498;2022-08-23T07:19:13;0.82;;;0.80;;
45136;SDS011;30894;51.740;19.498;2022-08-23T07:21:40;2.13;;;1.25;;
45136;SDS011;30894;51.740;19.498;2022-08-23T07:24:07;2.70;;;1.73;;
45136;SDS011;30894;51.740;19.498;2022-08-23T07:26:33;1.58;;;1.15;;
45136;SDS011;30894;51.740;19.498;2022-08-23T07:29:04;3.15;;;1.33;;
45136;SDS011;30894;51.740;19.498;2022-08-23T07:31:31;4.03;;;1.77;;
45136;SDS011;30894;51.740;19.498;2022-08-23T07:34:00;3.33;;;1.80;;
45136;SDS011;30894;51.740;19.498;2022-08-23T07:36:29;3.03;;;1.40;;
45136;SDS011;30894;51.740;19.498;2022-08-23T07:38:57;2.50;;;0.98;;
45136;SDS011;30894;51.740;19.498;2022-08-23T07:41:24;2.38;;;1.50;;
45136;SDS011;30894;51.740;19.498;2022-08-23T07:43:55;2.47;;;1.40;;
45136;SDS011;30894;51.740;19.498;2022-08-23T07:46:24;2.47;;;1.40;;
45136;SDS011;30894;51.740;19.498;2022-08-23T07:48:51;3.35;;;1.70;;
45136;SDS011;30894;51.740;19.498;2022-08-23T07:51:17;3.28;;;1.42;;
45136;SDS011;30894;51.740;19.498;2022-08-23T07:53:44;2.33;;;1.52;;
45136;SDS011;30894;51.740;19.498;2022-08-23T07:56:11;3.67;;;1.23;;
45136;SDS011;30894;51.740;19.498;2022-08-23T07:58:39;1.83;;;1.20;;
45136;SDS011;30894;51.740;19.498;2022-08-23T08:04:05;3.75;;;1.75;;
45136;SDS011;30894;51.740;19.498;2022-08-23T08:06:38;3.08;;;1.50;;
45136;SDS011;30894;51.740;19.498;2022-08-23T08:09:10;1.55;;;1.15;;
45136;SDS011;30894;51.740;19.498;2022-08-23T08:11:39;1.70;;;1.13;;
45136;SDS011;30894;51.740;19.498;2022-08-23T08:14:07;4.60;;;1.38;;
45136;SDS011;30894;51.740;19.498;2022-08-23T08:16:35;2.38;;;1.20;;
45136;SDS011;30894;51.740;19.498;2022-08-23T08:19:06;2.15;;;1.50;;
45136;SDS011;30894;51.740;19.498;2022-08-23T08:21:34;2.42;;;1.20;;
45136;SDS011;30894;51.740;19.498;2022-08-23T08:24:04;2.88;;;1.42;;
45136;SDS011;30894;51.740;19.498;2022-08-23T08:26:32;7.65;;;1.80;;
45136;SDS011;30894;51.740;19.498;2022-08-23T08:28:58;4.88;;;1.17;;
45136;SDS011;30894;51.740;19.498;2022-08-23T08:31:25;1.45;;;1.10;;
45136;SDS011;30894;51.740;19.498;2022-08-23T08:33:52;3.28;;;1.27;;
45136;SDS011;30894;51.740;19.498;2022-08-23T08:36:29;5.75;;;1.02;;
45136;SDS011;30894;51.740;19.498;2022-08-23T08:39:04;4.50;;;1.77;;
45136;SDS011;30894;51.740;19.498;2022-08-23T08:44:57;4.80;;;2.43;;
45136;SDS011;30894;51.740;19.498;2022-08-23T08:47:49;4.45;;;2.50;;
45136;SDS011;30894;51.740;19.498;2022-08-23T08:55:45;7.13;;;2.78;;
45136;SDS011;30894;51.740;19.498;2022-08-23T08:58:17;4.38;;;2.42;;
45136;SDS011;30894;51.740;19.498;2022-08-23T09:00:53;4.75;;;2.65;;
45136;SDS011;30894;51.740;19.498;2022-08-23T09:03:19;5.88;;;2.72;;
45136;SDS011;30894;51.740;19.498;2022-08-23T09:05:48;4.10;;;2.80;;
45136;SDS011;30894;51.740;19.498;2022-08-23T09:17:01;4.43;;;2.58;;
45136;SDS011;30894;51.740;19.498;2022-08-23T09:20:01;7.20;;;3.35;;
45136;SDS011;30894;51.740;19.498;2022-08-23T09:22:35;4.93;;;3.10;;
45136;SDS011;30894;51.740;19.498;2022-08-23T09:25:10;4.78;;;3.03;;
45136;SDS011;30894;51.740;19.498;2022-08-23T09:27:40;5.72;;;3.22;;
45136;SDS011;30894;51.740;19.498;2022-08-23T09:30:09;7.18;;;3.30;;
45136;SDS011;30894;51.740;19.498;2022-08-23T09:32:42;6.75;;;3.70;;
45136;SDS011;30894;51.740;19.498;2022-08-23T09:35:15;6.88;;;3.45;;
45136;SDS011;30894;51.740;19.498;2022-08-23T09:40:49;10.17;;;3.43;;
45136;SDS011;30894;51.740;19.498;2022-08-23T09:48:31;4.97;;;3.50;;
45136;SDS011;30894;51.740;19.498;2022-08-23T09:54:11;7.32;;;3.65;;
45136;SDS011;30894;51.740;19.498;2022-08-23T09:56:49;6.03;;;3.45;;
45136;SDS011;30894;51.740;19.498;2022-08-23T10:01:51;5.47;;;3.85;;
45136;SDS011;30894;51.740;19.498;2022-08-23T10:04:21;7.22;;;3.92;;
45136;SDS011;30894;51.740;19.498;2022-08-23T10:06:54;12.73;;;3.65;;
45136;SDS011;30894;51.740;19.498;2022-08-23T10:09:27;6.10;;;2.85;;
45136;SDS011;30894;51.740;19.498;2022-08-23T10:11:57;11.20;;;3.30;;
45136;SDS011;30894;51.740;19.498;2022-08-23T10:14:25;4.78;;;3.28;;
45136;SDS011;30894;51.740;19.498;2022-08-23T10:19:53;5.45;;;3.17;;
45136;SDS011;30894;51.740;19.498;2022-08-23T10:22:45;9.93;;;3.30;;
45136;SDS011;30894;51.740;19.498;2022-08-23T10:25:36;4.82;;;3.08;;
45136;SDS011;30894;51.740;19.498;2022-08-23T10:31:57;6.25;;;2.45;;
45136;SDS011;30894;51.740;19.498;2022-08-23T10:34:33;5.00;;;2.42;;
45136;SDS011;30894;51.740;19.498;2022-08-23T10:37:27;4.00;;;2.15;;
45136;SDS011;30894;51.740;19.498;2022-08-23T10:40:17;4.30;;;2.50;;
45136;SDS011;30894;51.740;19.498;2022-08-23T10:45:31;3.95;;;2.33;;
45136;SDS011;30894;51.740;19.498;2022-08-23T10:51:00;6.03;;;2.60;;
45136;SDS011;30894;51.740;19.498;2022-08-23T10:53:43;3.85;;;1.90;;
45136;SDS011;30894;51.740;19.498;2022-08-23T10:56:23;5.03;;;2.50;;
45136;SDS011;30894;51.740;19.498;2022-08-23T10:59:33;5.72;;;2.70;;
45136;SDS011;30894;51.740;19.498;2022-08-23T11:07:39;5.57;;;2.50;;
45136;SDS011;30894;51.740;19.498;2022-08-23T11:10:13;4.65;;;2.30;;
45136;SDS011;30894;51.740;19.498;2022-08-23T11:13:17;3.40;;;2.42;;
45136;SDS011;30894;51.740;19.498;2022-08-23T11:15:58;5.60;;;2.53;;
45136;SDS011;30894;51.740;19.498;2022-08-23T11:18:46;4.70;;;2.78;;
45136;SDS011;30894;51.740;19.498;2022-08-23T11:31:33;7.07;;;2.47;;
45136;SDS011;30894;51.740;19.498;2022-08-23T11:34:29;5.97;;;2.60;;
45136;SDS011;30894;51.740;19.498;2022-08-23T11:42:46;4.70;;;2.28;;
45136;SDS011;30894;51.740;19.498;2022-08-23T11:45:22;10.02;;;2.70;;
45136;SDS011;30894;51.740;19.498;2022-08-23T11:48:14;6.35;;;2.55;;
45136;SDS011;30894;51.740;19.498;2022-08-23T12:05:24;6.95;;;2.45;;
45136;SDS011;30894;51.740;19.498;2022-08-23T12:16:29;5.18;;;2.80;;
45136;SDS011;30894;51.740;19.498;2022-08-23T12:18:32;9.55;;;2.80;;
45136;SDS011;30894;51.740;19.498;2022-08-23T12:21:04;8.60;;;2.75;;
45136;SDS011;30894;51.740;19.498;2022-08-23T12:23:44;6.03;;;2.55;;
45136;SDS011;30894;51.740;19.498;2022-08-23T12:26:27;7.63;;;2.10;;
45136;SDS011;30894;51.740;19.498;2022-08-23T12:29:03;11.10;;;2.10;;
45136;SDS011;30894;51.740;19.498;2022-08-23T12:39:49;4.47;;;2.45;;
45136;SDS011;30894;51.740;19.498;2022-08-23T12:42:30;9.98;;;2.92;;
45136;SDS011;30894;51.740;19.498;2022-08-23T12:45:01;5.30;;;2.05;;
45136;SDS011;30894;51.740;19.498;2022-08-23T12:47:57;4.25;;;1.92;;
45136;SDS011;30894;51.740;19.498;2022-08-23T12:50:29;4.97;;;2.10;;
45136;SDS011;30894;51.740;19.498;2022-08-23T12:53:29;5.70;;;1.92;;
45136;SDS011;30894;51.740;19.498;2022-08-23T12:56:00;4.00;;;1.58;;
45136;SDS011;30894;51.740;19.498;2022-08-23T12:58:37;6.85;;;1.80;;
45136;SDS011;30894;51.740;19.498;2022-08-23T13:01:05;5.65;;;1.75;;
45136;SDS011;30894;51.740;19.498;2022-08-23T13:04:03;5.47;;;1.50;;
45136;SDS011;30894;51.740;19.498;2022-08-23T13:06:38;5.97;;;2.25;;
45136;SDS011;30894;51.740;19.498;2022-08-23T13:09:32;11.05;;;2.10;;
45136;SDS011;30894;51.740;19.498;2022-08-23T13:12:02;6.65;;;1.92;;
45136;SDS011;30894;51.740;19.498;2022-08-23T13:16:57;5.05;;;1.98;;
45136;SDS011;30894;51.740;19.498;2022-08-23T13:19:45;5.50;;;1.70;;
45136;SDS011;30894;51.740;19.498;2022-08-23T13:22:25;8.43;;;2.13;;
45136;SDS011;30894;51.740;19.498;2022-08-23T13:27:29;3.75;;;1.52;;
45136;SDS011;30894;51.740;19.498;2022-08-23T13:32:42;6.63;;;2.15;;
45136;SDS011;30894;51.740;19.498;2022-08-23T13:35:47;4.28;;;2.30;;
45136;SDS011;30894;51.740;19.498;2022-08-23T13:41:00;4.75;;;1.60;;
45136;SDS011;30894;51.740;19.498;2022-08-23T13:43:44;6.70;;;2.10;;
45136;SDS011;30894;51.740;19.498;2022-08-23T13:46:23;6.05;;;2.08;;
45136;SDS011;30894;51.740;19.498;2022-08-23T13:51:32;8.70;;;1.92;;
45136;SDS011;30894;51.740;19.498;2022-08-23T13:54:06;10.05;;;2.10;;
45136;SDS011;30894;51.740;19.498;2022-08-23T13:56:36;6.40;;;1.80;;
45136;SDS011;30894;51.740;19.498;2022-08-23T13:59:31;3.40;;;1.95;;
45136;SDS011;30894;51.740;19.498;2022-08-23T14:02:07;3.38;;;1.98;;
45136;SDS011;30894;51.740;19.498;2022-08-23T14:07:03;8.52;;;1.90;;
45136;SDS011;30894;51.740;19.498;2022-08-23T14:09:30;6.30;;;2.10;;
45136;SDS011;30894;51.740;19.498;2022-08-23T14:11:58;5.93;;;1.63;;
45136;SDS011;30894;51.740;19.498;2022-08-23T14:14:29;3.72;;;1.70;;
45136;SDS011;30894;51.740;19.498;2022-08-23T14:16:57;4.70;;;2.00;;
45136;SDS011;30894;51.740;19.498;2022-08-23T14:19:24;7.65;;;1.95;;
45136;SDS011;30894;51.740;19.498;2022-08-23T14:21:50;7.75;;;2.17;;
45136;SDS011;30894;51.740;19.498;2022-08-23T14:24:17;7.55;;;2.45;;
45136;SDS011;30894;51.740;19.498;2022-08-23T14:26:43;4.28;;;1.50;;
45136;SDS011;30894;51.740;19.498;2022-08-23T14:29:09;5.70;;;2.17;;
45136;SDS011;30894;51.740;19.498;2022-08-23T14:31:36;8.43;;;2.25;;
45136;SDS011;30894;51.740;19.498;2022-08-23T14:34:02;4.75;;;2.10;;
45136;SDS011;30894;51.740;19.498;2022-08-23T14:36:28;6.15;;;2.30;;
45136;SDS011;30894;51.740;19.498;2022-08-23T14:38:54;5.10;;;2.33;;
45136;SDS011;30894;51.740;19.498;2022-08-23T14:41:21;9.07;;;2.58;;
45136;SDS011;30894;51.740;19.498;2022-08-23T14:43:50;10.70;;;2.28;;
45136;SDS011;30894;51.740;19.498;2022-08-23T14:46:17;8.70;;;2.63;;
45136;SDS011;30894;51.740;19.498;2022-08-23T14:48:45;10.43;;;3.03;;
45136;SDS011;30894;51.740;19.498;2022-08-23T14:51:27;5.13;;;2.10;;
45136;SDS011;30894;51.740;19.498;2022-08-23T14:53:59;5.60;;;2.20;;
45136;SDS011;30894;51.740;19.498;2022-08-23T14:56:28;7.55;;;2.17;;
45136;SDS011;30894;51.740;19.498;2022-08-23T14:58:55;5.68;;;2.05;;
45136;SDS011;30894;51.740;19.498;2022-08-23T15:01:21;6.68;;;2.10;;
45136;SDS011;30894;51.740;19.498;2022-08-23T15:03:47;6.45;;;2.45;;
45136;SDS011;30894;51.740;19.498;2022-08-23T15:06:15;5.72;;;2.25;;
45136;SDS011;30894;51.740;19.498;2022-08-23T15:08:43;6.50;;;2.25;;
45136;SDS011;30894;51.740;19.498;2022-08-23T15:11:09;4.72;;;2.22;;
45136;SDS011;30894;51.740;19.498;2022-08-23T15:13:37;6.60;;;2.50;;
45136;SDS011;30894;51.740;19.498;2022-08-23T15:16:04;10.73;;;2.45;;
45136;SDS011;30894;51.740;19.498;2022-08-23T15:18:31;8.27;;;3.00;;
45136;SDS011;30894;51.740;19.498;2022-08-23T15:20:59;8.38;;;2.67;;
45136;SDS011;30894;51.740;19.498;2022-08-23T15:23:25;9.10;;;2.40;;
45136;SDS011;30894;51.740;19.498;2022-08-23T15:25:52;7.45;;;2.38;;
45136;SDS011;30894;51.740;19.498;2022-08-23T15:28:20;2.45;;;1.70;;
45136;SDS011;30894;51.740;19.498;2022-08-23T15:30:48;5.00;;;2.33;;
45136;SDS011;30894;51.740;19.498;2022-08-23T15:33:15;14.82;;;1.90;;
45136;SDS011;30894;51.740;19.498;2022-08-23T15:35:43;2.50;;;1.33;;
45136;SDS011;30894;51.740;19.498;2022-08-23T15:38:17;4.70;;;1.63;;
45136;SDS011;30894;51.740;19.498;2022-08-23T15:40:47;4.47;;;2.00;;
45136;SDS011;30894;51.740;19.498;2022-08-23T15:43:16;0.63;;;0.63;;
45136;SDS011;30894;51.740;19.498;2022-08-23T15:45:43;0.90;;;0.63;;
45136;SDS011;30894;51.740;19.498;2022-08-23T15:48:14;0.38;;;0.38;;
45136;SDS011;30894;51.740;19.498;2022-08-23T15:50:52;0.97;;;0.70;;
45136;SDS011;30894;51.740;19.498;2022-08-23T15:53:19;0.00;;;0.00;;
45136;SDS011;30894;51.740;19.498;2022-08-23T15:55:46;0.10;;;0.10;;
45136;SDS011;30894;51.740;19.498;2022-08-23T15:58:23;0.13;;;0.13;;
45136;SDS011;30894;51.740;19.498;2022-08-23T16:00:52;0.10;;;0.10;;
45136;SDS011;30894;51.740;19.498;2022-08-23T16:03:20;0.00;;;0.00;;
45136;SDS011;30894;51.740;19.498;2022-08-23T16:05:48;0.28;;;0.17;;
45136;SDS011;30894;51.740;19.498;2022-08-23T16:08:23;0.30;;;0.30;;
45136;SDS011;30894;51.740;19.498;2022-08-23T16:10:54;0.00;;;0.00;;
45136;SDS011;30894;51.740;19.498;2022-08-23T16:13:22;0.13;;;0.13;;
45136;SDS011;30894;51.740;19.498;2022-08-23T16:15:49;0.00;;;0.00;;
45136;SDS011;30894;51.740;19.498;2022-08-23T16:18:16;0.25;;;0.25;;
45136;SDS011;30894;51.740;19.498;2022-08-23T16:20:42;0.10;;;0.10;;
45136;SDS011;30894;51.740;19.498;2022-08-23T16:23:09;0.25;;;0.25;;
45136;SDS011;30894;51.740;19.498;2022-08-23T16:25:35;0.10;;;0.10;;
45136;SDS011;30894;51.740;19.498;2022-08-23T16:28:02;0.10;;;0.10;;
45136;SDS011;30894;51.740;19.498;2022-08-23T16:30:29;0.30;;;0.20;;
45136;SDS011;30894;51.740;19.498;2022-08-23T16:32:55;0.20;;;0.17;;
45136;SDS011;30894;51.740;19.498;2022-08-23T16:35:21;0.10;;;0.10;;
45136;SDS011;30894;51.740;19.498;2022-08-23T16:37:48;0.10;;;0.10;;
45136;SDS011;30894;51.740;19.498;2022-08-23T16:40:14;0.10;;;0.10;;
45136;SDS011;30894;51.740;19.498;2022-08-23T16:42:40;0.35;;;0.35;;
45136;SDS011;30894;51.740;19.498;2022-08-23T16:45:07;0.40;;;0.40;;
45136;SDS011;30894;51.740;19.498;2022-08-23T16:47:36;1.30;;;0.57;;
45136;SDS011;30894;51.740;19.498;2022-08-23T16:50:08;0.20;;;0.10;;
45136;SDS011;30894;51.740;19.498;2022-08-23T16:52:35;1.85;;;0.35;;
45136;SDS011;30894;51.740;19.498;2022-08-23T16:55:02;0.20;;;0.20;;
45136;SDS011;30894;51.740;19.498;2022-08-23T16:57:30;0.30;;;0.30;;
45136;SDS011;30894;51.740;19.498;2022-08-23T16:59:57;0.10;;;0.10;;
45136;SDS011;30894;51.740;19.498;2022-08-23T17:02:27;0.10;;;0.10;;
45136;SDS011;30894;51.740;19.498;2022-08-23T17:04:58;0.65;;;0.20;;